1°C
Woerden, The Nederlands
Taal:  Nederlands
Updated07/02/2023 03:40 
 

Nearby METAR Reports

EHAM - Amsterdam/Schiph, Netherlands
Distance from station: N 27km
Updated: 07/02/2023 03:25
Shallow fog, Few clouds
Shallow fog, Few clouds
 Wind van OZO
Wind: OZO 7 km/h
Temperatuur: -1°C
Hitte Index: -4°C
Dauwpunt: -1°C
Vochtigheid: 100%
Barometer: 1040 hPa
Overzicht: Shallow Fog
Clouds: Few Clouds
Visibility: 10 km
Cloud details: Few Clouds 671 m
2023/02/07 02:25 EHAM 070225Z 11004KT 9999 MIFG FEW022 M01/M01 Q1040 BECMG 7000
EHRD - Rotterdam Airpor, Netherlands
Distance from station: WZW 30km
Updated: 07/02/2023 03:25
Mist, Few clouds
Mist, Few clouds
 Wind van OZO
Wind: OZO 2 km/h
Temperatuur: -1°C
Dauwpunt: -1°C
Vochtigheid: 100%
Barometer: 1039 hPa
Overzicht: Mist
Clouds: Few Clouds
Visibility: 3 km
Cloud details: Few Clouds 1006 m
2023/02/07 02:25 EHRD 070225Z AUTO 12001KT 2500 BR FEW033 M01/M01 Q1039 NOSIG
 
EHGR - Gilze-Rijen Rnla, Netherlands
Distance from station: Z 57km
Updated: 07/02/2023 03:35
Mist, Helder
Mist, Helder
 Wind van ONO
Wind: ONO 4 km/h
Temperatuur: -2°C
Dauwpunt: -2°C
Vochtigheid: 100%
Barometer: 1039 hPa
Overzicht: Mist
Clouds: Helder
Visibility: 1 km
2023/02/07 02:35 EHGR 070235Z AUTO 07002KT 1400 BR NCD M02/M02 Q1039 AMB
EHDL - Deelen Rnlafb, Netherlands
Distance from station: O 71km
Updated: 07/02/2023 03:25
Mist, Helder
Mist, Helder
 Wind van O
Wind: O 7 km/h
Temperatuur: -2°C
Hitte Index: -6°C
Dauwpunt: -2°C
Vochtigheid: 100%
Barometer: 1039 hPa
Overzicht: Mist
Clouds: Helder
Visibility: 2 km
2023/02/07 02:25 EHDL 070225Z AUTO 08004KT 060V190 2000 BR NCD M02/M02 Q1039 YLO
 
EHVK - Volkel Rnlafb, Netherlands
Distance from station: ZO 77km
Updated: 07/02/2023 03:25
Freezing fog, Helder
Freezing fog, Helder
 Wind van O
Wind: O 7 km/h
Temperatuur: -3°C
Hitte Index: -6°C
Dauwpunt: -3°C
Vochtigheid: 100%
Barometer: 1039 hPa
Overzicht: Freezing Fog
Clouds: Helder
Visibility: 0 km
2023/02/07 02:25 EHVK 070225Z AUTO 08004KT 0300 FZFG NCD M03/M03 Q1039 RED
EHWO - Woensdrecht Rnla, Netherlands
Distance from station: ZZW 78km
Updated: 07/02/2023 03:37
Freezing fog, Helder
Freezing fog, Helder
 Wind van ONO
Wind: ONO 6 km/h
Temperatuur: -3°C
Dauwpunt: -3°C
Vochtigheid: 100%
Barometer: 1039 hPa
Overzicht: Freezing Fog
Clouds: Helder
Visibility: 1 km
2023/02/07 02:37 EHWO 070237Z AUTO 07003KT 0800 FZFG NCD M03/M03 Q1039 AMB
 
EHEH - Eindhoven Rnlafb, Netherlands
Distance from station: ZZO 81km
Updated: 07/02/2023 03:29
Mist, Helder
Mist, Helder
 Wind van O
Wind: O 7 km/h
Temperatuur: 1°C
Hitte Index: -2°C
Dauwpunt: 0°C
Vochtigheid: 93%
Barometer: 1039 hPa
Overzicht: Mist
Clouds: Helder
Visibility: 2 km
2023/02/07 02:29 EHEH 070229Z AUTO 09004KT 2300 BR NCD 01/00 Q1039 YLO
EHSC - Goeree Le Sea, Netherlands
Distance from station: W 81km
Updated: 07/02/2023 03:25

 Wind van OZO
Wind: OZO 11 km/h
Temperatuur: 6°C
Hitte Index: 4°C
Dauwpunt: 3°C
Vochtigheid: 81%
Barometer: 1040 hPa
Visibility: 10 km
2023/02/07 02:25 EHSC 070225Z AUTO 11006KT 9999 ///////// 06/03 Q1040 W08/H5